<?xml version="1.0" encoding="UTF-8" standalone="no" ?>
<gpx xmlns="http://www.topografix.com/GPX/1/1" xmlns:xsi="http://www.w3.org/2001/XMLSchema-instance" xsi:schemaLocation="http://www.topografix.com/GPX/1/1 http://www.topografix.com/GPX/1/1/gpx.xsd" version="1.1" creator="VisuGPX - https://www.visugpx.com">
  <metadata>
    <name>De Périgueux à Saint-Astier</name>
    <desc><![CDATA[LE CHEMIN VERS COMPOSTELLE, LA VOIE DE VEZELAY d'EGUZON A ST JEAN-PIED-DE-PORT]]></desc>
  </metadata>
  <trk>
    <name><![CDATA[9552762-Périgueux - Saint-Astier]]></name>
    <trkseg>
      <trkpt lat="45.18401" lon="0.7226">
        <ele>106</ele>
        <time>2019-02-08T17:38:25Z</time>
      </trkpt>
      <trkpt lat="45.18415" lon="0.72282">
        <ele>106</ele>
        <time>2019-02-08T17:39:25Z</time>
      </trkpt>
      <trkpt lat="45.18626" lon="0.72288">
        <ele>112</ele>
        <time>2019-02-08T17:40:25Z</time>
      </trkpt>
      <trkpt lat="45.18631" lon="0.72238">
        <ele>112</ele>
        <time>2019-02-08T17:41:25Z</time>
      </trkpt>
      <trkpt lat="45.18638" lon="0.722">
        <ele>111</ele>
        <time>2019-02-08T17:42:25Z</time>
      </trkpt>
      <trkpt lat="45.18659" lon="0.7219">
        <ele>110</ele>
        <time>2019-02-08T17:43:25Z</time>
      </trkpt>
      <trkpt lat="45.18686" lon="0.72177">
        <ele>110</ele>
        <time>2019-02-08T17:44:25Z</time>
      </trkpt>
      <trkpt lat="45.18698" lon="0.72149">
        <ele>111</ele>
        <time>2019-02-08T17:45:25Z</time>
      </trkpt>
      <trkpt lat="45.18707" lon="0.72139">
        <ele>111</ele>
        <time>2019-02-08T17:46:25Z</time>
      </trkpt>
      <trkpt lat="45.18721" lon="0.72139">
        <ele>112</ele>
        <time>2019-02-08T17:47:25Z</time>
      </trkpt>
      <trkpt lat="45.18805" lon="0.71819">
        <ele>108</ele>
        <time>2019-02-08T17:48:25Z</time>
      </trkpt>
      <trkpt lat="45.18886" lon="0.71525">
        <ele>104</ele>
        <time>2019-02-08T17:49:25Z</time>
      </trkpt>
      <trkpt lat="45.18985" lon="0.71156">
        <ele>102</ele>
        <time>2019-02-08T17:50:25Z</time>
      </trkpt>
      <trkpt lat="45.19008" lon="0.71146">
        <ele>102</ele>
        <time>2019-02-08T17:51:25Z</time>
      </trkpt>
      <trkpt lat="45.19068" lon="0.71097">
        <ele>99</ele>
        <time>2019-02-08T17:52:25Z</time>
      </trkpt>
      <trkpt lat="45.19118" lon="0.71024">
        <ele>97</ele>
        <time>2019-02-08T17:53:25Z</time>
      </trkpt>
      <trkpt lat="45.19209" lon="0.70895">
        <ele>93</ele>
        <time>2019-02-08T17:54:25Z</time>
      </trkpt>
      <trkpt lat="45.19346" lon="0.70702">
        <ele>90</ele>
        <time>2019-02-08T17:55:25Z</time>
      </trkpt>
      <trkpt lat="45.19661" lon="0.70264">
        <ele>84</ele>
        <time>2019-02-08T17:56:25Z</time>
      </trkpt>
      <trkpt lat="45.19695" lon="0.70215">
        <ele>84</ele>
        <time>2019-02-08T17:57:25Z</time>
      </trkpt>
      <trkpt lat="45.19642" lon="0.70156">
        <ele>85</ele>
        <time>2019-02-08T17:58:25Z</time>
      </trkpt>
      <trkpt lat="45.19742" lon="0.7002">
        <ele>83</ele>
        <time>2019-02-08T17:59:25Z</time>
      </trkpt>
      <trkpt lat="45.1972" lon="0.69962">
        <ele>84</ele>
        <time>2019-02-08T18:00:25Z</time>
      </trkpt>
      <trkpt lat="45.19711" lon="0.69946">
        <ele>85</ele>
        <time>2019-02-08T18:01:25Z</time>
      </trkpt>
      <trkpt lat="45.1971" lon="0.69924">
        <ele>85</ele>
        <time>2019-02-08T18:02:25Z</time>
      </trkpt>
      <trkpt lat="45.19719" lon="0.69904">
        <ele>85</ele>
        <time>2019-02-08T18:03:25Z</time>
      </trkpt>
      <trkpt lat="45.1974" lon="0.69888">
        <ele>85</ele>
        <time>2019-02-08T18:04:25Z</time>
      </trkpt>
      <trkpt lat="45.19763" lon="0.69878">
        <ele>84</ele>
        <time>2019-02-08T18:05:25Z</time>
      </trkpt>
      <trkpt lat="45.19799" lon="0.69869">
        <ele>84</ele>
        <time>2019-02-08T18:06:25Z</time>
      </trkpt>
      <trkpt lat="45.19844" lon="0.69847">
        <ele>84</ele>
        <time>2019-02-08T18:07:25Z</time>
      </trkpt>
      <trkpt lat="45.19872" lon="0.69827">
        <ele>84</ele>
        <time>2019-02-08T18:08:25Z</time>
      </trkpt>
      <trkpt lat="45.19936" lon="0.69769">
        <ele>83</ele>
        <time>2019-02-08T18:09:25Z</time>
      </trkpt>
      <trkpt lat="45.19957" lon="0.69745">
        <ele>83</ele>
        <time>2019-02-08T18:10:25Z</time>
      </trkpt>
      <trkpt lat="45.20042" lon="0.69618">
        <ele>83</ele>
        <time>2019-02-08T18:11:25Z</time>
      </trkpt>
      <trkpt lat="45.20073" lon="0.69555">
        <ele>83</ele>
        <time>2019-02-08T18:12:25Z</time>
      </trkpt>
      <trkpt lat="45.201" lon="0.69496">
        <ele>84</ele>
        <time>2019-02-08T18:13:25Z</time>
      </trkpt>
      <trkpt lat="45.20112" lon="0.69466">
        <ele>86</ele>
        <time>2019-02-08T18:14:25Z</time>
      </trkpt>
      <trkpt lat="45.20109" lon="0.69443">
        <ele>86</ele>
        <time>2019-02-08T18:15:25Z</time>
      </trkpt>
      <trkpt lat="45.20115" lon="0.69422">
        <ele>87</ele>
        <time>2019-02-08T18:16:25Z</time>
      </trkpt>
      <trkpt lat="45.20126" lon="0.69392">
        <ele>87</ele>
        <time>2019-02-08T18:17:25Z</time>
      </trkpt>
      <trkpt lat="45.20146" lon="0.69346">
        <ele>89</ele>
        <time>2019-02-08T18:18:25Z</time>
      </trkpt>
      <trkpt lat="45.20153" lon="0.69312">
        <ele>89</ele>
        <time>2019-02-08T18:19:25Z</time>
      </trkpt>
      <trkpt lat="45.20155" lon="0.69272">
        <ele>89</ele>
        <time>2019-02-08T18:20:25Z</time>
      </trkpt>
      <trkpt lat="45.20164" lon="0.6921">
        <ele>89</ele>
        <time>2019-02-08T18:21:25Z</time>
      </trkpt>
      <trkpt lat="45.20171" lon="0.69146">
        <ele>90</ele>
        <time>2019-02-08T18:22:25Z</time>
      </trkpt>
      <trkpt lat="45.20184" lon="0.69041">
        <ele>95</ele>
        <time>2019-02-08T18:23:25Z</time>
      </trkpt>
      <trkpt lat="45.20189" lon="0.68979">
        <ele>96</ele>
        <time>2019-02-08T18:24:25Z</time>
      </trkpt>
      <trkpt lat="45.20192" lon="0.68928">
        <ele>99</ele>
        <time>2019-02-08T18:25:25Z</time>
      </trkpt>
      <trkpt lat="45.2019" lon="0.68866">
        <ele>100</ele>
        <time>2019-02-08T18:26:25Z</time>
      </trkpt>
      <trkpt lat="45.20185" lon="0.68815">
        <ele>100</ele>
        <time>2019-02-08T18:27:25Z</time>
      </trkpt>
      <trkpt lat="45.20173" lon="0.68762">
        <ele>97</ele>
        <time>2019-02-08T18:28:25Z</time>
      </trkpt>
      <trkpt lat="45.20153" lon="0.6869">
        <ele>96</ele>
        <time>2019-02-08T18:29:25Z</time>
      </trkpt>
      <trkpt lat="45.20128" lon="0.68607">
        <ele>95</ele>
        <time>2019-02-08T18:30:25Z</time>
      </trkpt>
      <trkpt lat="45.20104" lon="0.68546">
        <ele>93</ele>
        <time>2019-02-08T18:31:25Z</time>
      </trkpt>
      <trkpt lat="45.20071" lon="0.68466">
        <ele>93</ele>
        <time>2019-02-08T18:32:25Z</time>
      </trkpt>
      <trkpt lat="45.19978" lon="0.68496">
        <ele>86</ele>
        <time>2019-02-08T18:33:25Z</time>
      </trkpt>
      <trkpt lat="45.19927" lon="0.68243">
        <ele>89</ele>
        <time>2019-02-08T18:34:25Z</time>
      </trkpt>
      <trkpt lat="45.1987" lon="0.67935">
        <ele>90</ele>
        <time>2019-02-08T18:35:25Z</time>
      </trkpt>
      <trkpt lat="45.19824" lon="0.67696">
        <ele>89</ele>
        <time>2019-02-08T18:36:25Z</time>
      </trkpt>
      <trkpt lat="45.19907" lon="0.67674">
        <ele>92</ele>
        <time>2019-02-08T18:37:25Z</time>
      </trkpt>
      <trkpt lat="45.19963" lon="0.67655">
        <ele>94</ele>
        <time>2019-02-08T18:38:25Z</time>
      </trkpt>
      <trkpt lat="45.19948" lon="0.67539">
        <ele>88</ele>
        <time>2019-02-08T18:39:25Z</time>
      </trkpt>
      <trkpt lat="45.19977" lon="0.6747">
        <ele>86</ele>
        <time>2019-02-08T18:40:25Z</time>
      </trkpt>
      <trkpt lat="45.20013" lon="0.67419">
        <ele>86</ele>
        <time>2019-02-08T18:41:25Z</time>
      </trkpt>
      <trkpt lat="45.20012" lon="0.67359">
        <ele>84</ele>
        <time>2019-02-08T18:42:25Z</time>
      </trkpt>
      <trkpt lat="45.20001" lon="0.67262">
        <ele>84</ele>
        <time>2019-02-08T18:43:25Z</time>
      </trkpt>
      <trkpt lat="45.20019" lon="0.6714">
        <ele>88</ele>
        <time>2019-02-08T18:44:25Z</time>
      </trkpt>
      <trkpt lat="45.20047" lon="0.67087">
        <ele>88</ele>
        <time>2019-02-08T18:45:25Z</time>
      </trkpt>
      <trkpt lat="45.20099" lon="0.67014">
        <ele>90</ele>
        <time>2019-02-08T18:46:25Z</time>
      </trkpt>
      <trkpt lat="45.20185" lon="0.66891">
        <ele>97</ele>
        <time>2019-02-08T18:47:25Z</time>
      </trkpt>
      <trkpt lat="45.20246" lon="0.66827">
        <ele>101</ele>
        <time>2019-02-08T18:48:25Z</time>
      </trkpt>
      <trkpt lat="45.20443" lon="0.66731">
        <ele>104</ele>
        <time>2019-02-08T18:49:25Z</time>
      </trkpt>
      <trkpt lat="45.20519" lon="0.66708">
        <ele>104</ele>
        <time>2019-02-08T18:50:25Z</time>
      </trkpt>
      <trkpt lat="45.20559" lon="0.66685">
        <ele>104</ele>
        <time>2019-02-08T18:51:25Z</time>
      </trkpt>
      <trkpt lat="45.20589" lon="0.66561">
        <ele>108</ele>
        <time>2019-02-08T18:52:25Z</time>
      </trkpt>
      <trkpt lat="45.20598" lon="0.66521">
        <ele>110</ele>
        <time>2019-02-08T18:53:25Z</time>
      </trkpt>
      <trkpt lat="45.20573" lon="0.665">
        <ele>112</ele>
        <time>2019-02-08T18:54:25Z</time>
      </trkpt>
      <trkpt lat="45.20546" lon="0.66488">
        <ele>112</ele>
        <time>2019-02-08T18:55:25Z</time>
      </trkpt>
      <trkpt lat="45.20542" lon="0.66453">
        <ele>114</ele>
        <time>2019-02-08T18:56:25Z</time>
      </trkpt>
      <trkpt lat="45.20565" lon="0.66427">
        <ele>116</ele>
        <time>2019-02-08T18:57:25Z</time>
      </trkpt>
      <trkpt lat="45.20562" lon="0.66386">
        <ele>118</ele>
        <time>2019-02-08T18:58:25Z</time>
      </trkpt>
      <trkpt lat="45.20553" lon="0.66329">
        <ele>121</ele>
        <time>2019-02-08T18:59:25Z</time>
      </trkpt>
      <trkpt lat="45.20537" lon="0.66271">
        <ele>123</ele>
        <time>2019-02-08T19:00:25Z</time>
      </trkpt>
      <trkpt lat="45.20526" lon="0.6621">
        <ele>125</ele>
        <time>2019-02-08T19:01:25Z</time>
      </trkpt>
      <trkpt lat="45.20512" lon="0.6617">
        <ele>127</ele>
        <time>2019-02-08T19:02:25Z</time>
      </trkpt>
      <trkpt lat="45.205" lon="0.66072">
        <ele>133</ele>
        <time>2019-02-08T19:03:25Z</time>
      </trkpt>
      <trkpt lat="45.20488" lon="0.66012">
        <ele>135</ele>
        <time>2019-02-08T19:04:25Z</time>
      </trkpt>
      <trkpt lat="45.20478" lon="0.65943">
        <ele>139</ele>
        <time>2019-02-08T19:05:25Z</time>
      </trkpt>
      <trkpt lat="45.20465" lon="0.65829">
        <ele>149</ele>
        <time>2019-02-08T19:06:25Z</time>
      </trkpt>
      <trkpt lat="45.20457" lon="0.65804">
        <ele>151</ele>
        <time>2019-02-08T19:07:25Z</time>
      </trkpt>
      <trkpt lat="45.20467" lon="0.6574">
        <ele>156</ele>
        <time>2019-02-08T19:08:25Z</time>
      </trkpt>
      <trkpt lat="45.20472" lon="0.65684">
        <ele>158</ele>
        <time>2019-02-08T19:09:25Z</time>
      </trkpt>
      <trkpt lat="45.20476" lon="0.65647">
        <ele>159</ele>
        <time>2019-02-08T19:10:25Z</time>
      </trkpt>
      <trkpt lat="45.20484" lon="0.6553">
        <ele>162</ele>
        <time>2019-02-08T19:11:25Z</time>
      </trkpt>
      <trkpt lat="45.20478" lon="0.65469">
        <ele>163</ele>
        <time>2019-02-08T19:12:25Z</time>
      </trkpt>
      <trkpt lat="45.20483" lon="0.65371">
        <ele>164</ele>
        <time>2019-02-08T19:13:25Z</time>
      </trkpt>
      <trkpt lat="45.20503" lon="0.65248">
        <ele>172</ele>
        <time>2019-02-08T19:14:25Z</time>
      </trkpt>
      <trkpt lat="45.2053" lon="0.65168">
        <ele>174</ele>
        <time>2019-02-08T19:15:25Z</time>
      </trkpt>
      <trkpt lat="45.2051" lon="0.65132">
        <ele>174</ele>
        <time>2019-02-08T19:16:25Z</time>
      </trkpt>
      <trkpt lat="45.20499" lon="0.65081">
        <ele>174</ele>
        <time>2019-02-08T19:17:25Z</time>
      </trkpt>
      <trkpt lat="45.2049" lon="0.65027">
        <ele>173</ele>
        <time>2019-02-08T19:18:25Z</time>
      </trkpt>
      <trkpt lat="45.20495" lon="0.65007">
        <ele>174</ele>
        <time>2019-02-08T19:19:25Z</time>
      </trkpt>
      <trkpt lat="45.20486" lon="0.64984">
        <ele>173</ele>
        <time>2019-02-08T19:20:25Z</time>
      </trkpt>
      <trkpt lat="45.20486" lon="0.64952">
        <ele>173</ele>
        <time>2019-02-08T19:21:25Z</time>
      </trkpt>
      <trkpt lat="45.20473" lon="0.649">
        <ele>174</ele>
        <time>2019-02-08T19:22:25Z</time>
      </trkpt>
      <trkpt lat="45.20468" lon="0.64832">
        <ele>176</ele>
        <time>2019-02-08T19:23:25Z</time>
      </trkpt>
      <trkpt lat="45.20469" lon="0.64753">
        <ele>179</ele>
        <time>2019-02-08T19:24:25Z</time>
      </trkpt>
      <trkpt lat="45.20473" lon="0.64685">
        <ele>179</ele>
        <time>2019-02-08T19:25:25Z</time>
      </trkpt>
      <trkpt lat="45.20468" lon="0.64636">
        <ele>178</ele>
        <time>2019-02-08T19:26:25Z</time>
      </trkpt>
      <trkpt lat="45.20455" lon="0.64591">
        <ele>175</ele>
        <time>2019-02-08T19:27:25Z</time>
      </trkpt>
      <trkpt lat="45.2044" lon="0.64551">
        <ele>174</ele>
        <time>2019-02-08T19:28:25Z</time>
      </trkpt>
      <trkpt lat="45.20428" lon="0.64527">
        <ele>174</ele>
        <time>2019-02-08T19:29:25Z</time>
      </trkpt>
      <trkpt lat="45.20417" lon="0.64507">
        <ele>173</ele>
        <time>2019-02-08T19:30:25Z</time>
      </trkpt>
      <trkpt lat="45.20406" lon="0.64503">
        <ele>172</ele>
        <time>2019-02-08T19:31:25Z</time>
      </trkpt>
      <trkpt lat="45.20411" lon="0.64461">
        <ele>173</ele>
        <time>2019-02-08T19:32:25Z</time>
      </trkpt>
      <trkpt lat="45.20421" lon="0.64373">
        <ele>172</ele>
        <time>2019-02-08T19:33:25Z</time>
      </trkpt>
      <trkpt lat="45.20414" lon="0.643">
        <ele>171</ele>
        <time>2019-02-08T19:34:25Z</time>
      </trkpt>
      <trkpt lat="45.2041" lon="0.64263">
        <ele>170</ele>
        <time>2019-02-08T19:35:25Z</time>
      </trkpt>
      <trkpt lat="45.20398" lon="0.64178">
        <ele>170</ele>
        <time>2019-02-08T19:36:25Z</time>
      </trkpt>
      <trkpt lat="45.20388" lon="0.64124">
        <ele>169</ele>
        <time>2019-02-08T19:37:25Z</time>
      </trkpt>
      <trkpt lat="45.2037" lon="0.64077">
        <ele>167</ele>
        <time>2019-02-08T19:38:25Z</time>
      </trkpt>
      <trkpt lat="45.20341" lon="0.64016">
        <ele>163</ele>
        <time>2019-02-08T19:39:25Z</time>
      </trkpt>
      <trkpt lat="45.20339" lon="0.63934">
        <ele>160</ele>
        <time>2019-02-08T19:40:25Z</time>
      </trkpt>
      <trkpt lat="45.20356" lon="0.63874">
        <ele>158</ele>
        <time>2019-02-08T19:41:25Z</time>
      </trkpt>
      <trkpt lat="45.20385" lon="0.63809">
        <ele>153</ele>
        <time>2019-02-08T19:42:25Z</time>
      </trkpt>
      <trkpt lat="45.20407" lon="0.63772">
        <ele>148</ele>
        <time>2019-02-08T19:43:25Z</time>
      </trkpt>
      <trkpt lat="45.20462" lon="0.6368">
        <ele>139</ele>
        <time>2019-02-08T19:44:25Z</time>
      </trkpt>
      <trkpt lat="45.2049" lon="0.63634">
        <ele>132</ele>
        <time>2019-02-08T19:45:25Z</time>
      </trkpt>
      <trkpt lat="45.20515" lon="0.63596">
        <ele>129</ele>
        <time>2019-02-08T19:46:25Z</time>
      </trkpt>
      <trkpt lat="45.20545" lon="0.6351">
        <ele>124</ele>
        <time>2019-02-08T19:47:25Z</time>
      </trkpt>
      <trkpt lat="45.2056" lon="0.63467">
        <ele>120</ele>
        <time>2019-02-08T19:48:25Z</time>
      </trkpt>
      <trkpt lat="45.20595" lon="0.63393">
        <ele>109</ele>
        <time>2019-02-08T19:49:25Z</time>
      </trkpt>
      <trkpt lat="45.20619" lon="0.63332">
        <ele>104</ele>
        <time>2019-02-08T19:50:25Z</time>
      </trkpt>
      <trkpt lat="45.20632" lon="0.63283">
        <ele>100</ele>
        <time>2019-02-08T19:51:25Z</time>
      </trkpt>
      <trkpt lat="45.20669" lon="0.63226">
        <ele>100</ele>
        <time>2019-02-08T19:52:25Z</time>
      </trkpt>
      <trkpt lat="45.20676" lon="0.63203">
        <ele>104</ele>
        <time>2019-02-08T19:53:25Z</time>
      </trkpt>
      <trkpt lat="45.20742" lon="0.63225">
        <ele>108</ele>
        <time>2019-02-08T19:54:25Z</time>
      </trkpt>
      <trkpt lat="45.20768" lon="0.63256">
        <ele>108</ele>
        <time>2019-02-08T19:55:25Z</time>
      </trkpt>
      <trkpt lat="45.20784" lon="0.63283">
        <ele>109</ele>
        <time>2019-02-08T19:56:25Z</time>
      </trkpt>
      <trkpt lat="45.20816" lon="0.63295">
        <ele>112</ele>
        <time>2019-02-08T19:57:25Z</time>
      </trkpt>
      <trkpt lat="45.20826" lon="0.63272">
        <ele>115</ele>
        <time>2019-02-08T19:58:25Z</time>
      </trkpt>
      <trkpt lat="45.20819" lon="0.63246">
        <ele>117</ele>
        <time>2019-02-08T19:59:25Z</time>
      </trkpt>
      <trkpt lat="45.20807" lon="0.63226">
        <ele>117</ele>
        <time>2019-02-08T20:00:25Z</time>
      </trkpt>
      <trkpt lat="45.20801" lon="0.63194">
        <ele>120</ele>
        <time>2019-02-08T20:01:25Z</time>
      </trkpt>
      <trkpt lat="45.20798" lon="0.63167">
        <ele>123</ele>
        <time>2019-02-08T20:02:25Z</time>
      </trkpt>
      <trkpt lat="45.20811" lon="0.63148">
        <ele>128</ele>
        <time>2019-02-08T20:03:25Z</time>
      </trkpt>
      <trkpt lat="45.20828" lon="0.63143">
        <ele>130</ele>
        <time>2019-02-08T20:04:25Z</time>
      </trkpt>
      <trkpt lat="45.20848" lon="0.63159">
        <ele>132</ele>
        <time>2019-02-08T20:05:25Z</time>
      </trkpt>
      <trkpt lat="45.20881" lon="0.63171">
        <ele>138</ele>
        <time>2019-02-08T20:06:25Z</time>
      </trkpt>
      <trkpt lat="45.20901" lon="0.63159">
        <ele>144</ele>
        <time>2019-02-08T20:07:25Z</time>
      </trkpt>
      <trkpt lat="45.20913" lon="0.63124">
        <ele>149</ele>
        <time>2019-02-08T20:08:25Z</time>
      </trkpt>
      <trkpt lat="45.20904" lon="0.63069">
        <ele>153</ele>
        <time>2019-02-08T20:09:25Z</time>
      </trkpt>
      <trkpt lat="45.20881" lon="0.63">
        <ele>160</ele>
        <time>2019-02-08T20:10:25Z</time>
      </trkpt>
      <trkpt lat="45.20857" lon="0.62971">
        <ele>161</ele>
        <time>2019-02-08T20:11:25Z</time>
      </trkpt>
      <trkpt lat="45.2082" lon="0.6294">
        <ele>163</ele>
        <time>2019-02-08T20:12:25Z</time>
      </trkpt>
      <trkpt lat="45.20803" lon="0.62908">
        <ele>166</ele>
        <time>2019-02-08T20:13:25Z</time>
      </trkpt>
      <trkpt lat="45.20793" lon="0.62894">
        <ele>166</ele>
        <time>2019-02-08T20:14:25Z</time>
      </trkpt>
      <trkpt lat="45.20753" lon="0.62893">
        <ele>167</ele>
        <time>2019-02-08T20:15:25Z</time>
      </trkpt>
      <trkpt lat="45.20695" lon="0.62897">
        <ele>166</ele>
        <time>2019-02-08T20:16:25Z</time>
      </trkpt>
      <trkpt lat="45.20657" lon="0.62893">
        <ele>164</ele>
        <time>2019-02-08T20:17:25Z</time>
      </trkpt>
      <trkpt lat="45.20616" lon="0.62848">
        <ele>165</ele>
        <time>2019-02-08T20:18:25Z</time>
      </trkpt>
      <trkpt lat="45.2054" lon="0.6274">
        <ele>166</ele>
        <time>2019-02-08T20:19:25Z</time>
      </trkpt>
      <trkpt lat="45.2057" lon="0.62732">
        <ele>164</ele>
        <time>2019-02-08T20:20:25Z</time>
      </trkpt>
      <trkpt lat="45.206" lon="0.62717">
        <ele>161</ele>
        <time>2019-02-08T20:21:25Z</time>
      </trkpt>
      <trkpt lat="45.20626" lon="0.6271">
        <ele>158</ele>
        <time>2019-02-08T20:22:25Z</time>
      </trkpt>
      <trkpt lat="45.20634" lon="0.62686">
        <ele>154</ele>
        <time>2019-02-08T20:23:25Z</time>
      </trkpt>
      <trkpt lat="45.20617" lon="0.6265">
        <ele>151</ele>
        <time>2019-02-08T20:24:25Z</time>
      </trkpt>
      <trkpt lat="45.20606" lon="0.62603">
        <ele>148</ele>
        <time>2019-02-08T20:25:25Z</time>
      </trkpt>
      <trkpt lat="45.20609" lon="0.6258">
        <ele>146</ele>
        <time>2019-02-08T20:26:25Z</time>
      </trkpt>
      <trkpt lat="45.20648" lon="0.6252">
        <ele>134</ele>
        <time>2019-02-08T20:27:25Z</time>
      </trkpt>
      <trkpt lat="45.20668" lon="0.62483">
        <ele>130</ele>
        <time>2019-02-08T20:28:25Z</time>
      </trkpt>
      <trkpt lat="45.20656" lon="0.62409">
        <ele>130</ele>
        <time>2019-02-08T20:29:25Z</time>
      </trkpt>
      <trkpt lat="45.20639" lon="0.62372">
        <ele>127</ele>
        <time>2019-02-08T20:30:25Z</time>
      </trkpt>
      <trkpt lat="45.20645" lon="0.6234">
        <ele>125</ele>
        <time>2019-02-08T20:31:25Z</time>
      </trkpt>
      <trkpt lat="45.20659" lon="0.62314">
        <ele>126</ele>
        <time>2019-02-08T20:32:25Z</time>
      </trkpt>
      <trkpt lat="45.20651" lon="0.62265">
        <ele>128</ele>
        <time>2019-02-08T20:33:25Z</time>
      </trkpt>
      <trkpt lat="45.20638" lon="0.6222">
        <ele>131</ele>
        <time>2019-02-08T20:34:25Z</time>
      </trkpt>
      <trkpt lat="45.20621" lon="0.62199">
        <ele>133</ele>
        <time>2019-02-08T20:35:25Z</time>
      </trkpt>
      <trkpt lat="45.20621" lon="0.62187">
        <ele>135</ele>
        <time>2019-02-08T20:36:25Z</time>
      </trkpt>
      <trkpt lat="45.20642" lon="0.62165">
        <ele>136</ele>
        <time>2019-02-08T20:37:25Z</time>
      </trkpt>
      <trkpt lat="45.20656" lon="0.62132">
        <ele>139</ele>
        <time>2019-02-08T20:38:25Z</time>
      </trkpt>
      <trkpt lat="45.20664" lon="0.62117">
        <ele>140</ele>
        <time>2019-02-08T20:39:25Z</time>
      </trkpt>
      <trkpt lat="45.20674" lon="0.62065">
        <ele>146</ele>
        <time>2019-02-08T20:40:25Z</time>
      </trkpt>
      <trkpt lat="45.20665" lon="0.62054">
        <ele>148</ele>
        <time>2019-02-08T20:41:25Z</time>
      </trkpt>
      <trkpt lat="45.20631" lon="0.62065">
        <ele>150</ele>
        <time>2019-02-08T20:42:25Z</time>
      </trkpt>
      <trkpt lat="45.20607" lon="0.62058">
        <ele>154</ele>
        <time>2019-02-08T20:43:25Z</time>
      </trkpt>
      <trkpt lat="45.20591" lon="0.6205">
        <ele>156</ele>
        <time>2019-02-08T20:44:25Z</time>
      </trkpt>
      <trkpt lat="45.20582" lon="0.62041">
        <ele>158</ele>
        <time>2019-02-08T20:45:25Z</time>
      </trkpt>
      <trkpt lat="45.20566" lon="0.61981">
        <ele>164</ele>
        <time>2019-02-08T20:46:25Z</time>
      </trkpt>
      <trkpt lat="45.20555" lon="0.61969">
        <ele>165</ele>
        <time>2019-02-08T20:47:25Z</time>
      </trkpt>
      <trkpt lat="45.20514" lon="0.61928">
        <ele>169</ele>
        <time>2019-02-08T20:48:25Z</time>
      </trkpt>
      <trkpt lat="45.20475" lon="0.61894">
        <ele>168</ele>
        <time>2019-02-08T20:49:25Z</time>
      </trkpt>
      <trkpt lat="45.20473" lon="0.61794">
        <ele>171</ele>
        <time>2019-02-08T20:50:25Z</time>
      </trkpt>
      <trkpt lat="45.20458" lon="0.61749">
        <ele>170</ele>
        <time>2019-02-08T20:51:25Z</time>
      </trkpt>
      <trkpt lat="45.20452" lon="0.61731">
        <ele>170</ele>
        <time>2019-02-08T20:52:25Z</time>
      </trkpt>
      <trkpt lat="45.20453" lon="0.61712">
        <ele>170</ele>
        <time>2019-02-08T20:53:25Z</time>
      </trkpt>
      <trkpt lat="45.20461" lon="0.61686">
        <ele>170</ele>
        <time>2019-02-08T20:54:25Z</time>
      </trkpt>
      <trkpt lat="45.20437" lon="0.61639">
        <ele>170</ele>
        <time>2019-02-08T20:55:25Z</time>
      </trkpt>
      <trkpt lat="45.20415" lon="0.61618">
        <ele>170</ele>
        <time>2019-02-08T20:56:25Z</time>
      </trkpt>
      <trkpt lat="45.20397" lon="0.61609">
        <ele>169</ele>
        <time>2019-02-08T20:57:25Z</time>
      </trkpt>
      <trkpt lat="45.20388" lon="0.61589">
        <ele>169</ele>
        <time>2019-02-08T20:58:25Z</time>
      </trkpt>
      <trkpt lat="45.20378" lon="0.6157">
        <ele>168</ele>
        <time>2019-02-08T20:59:25Z</time>
      </trkpt>
      <trkpt lat="45.20351" lon="0.61537">
        <ele>166</ele>
        <time>2019-02-08T21:00:25Z</time>
      </trkpt>
      <trkpt lat="45.20325" lon="0.61507">
        <ele>165</ele>
        <time>2019-02-08T21:01:25Z</time>
      </trkpt>
      <trkpt lat="45.20296" lon="0.61477">
        <ele>164</ele>
        <time>2019-02-08T21:02:25Z</time>
      </trkpt>
      <trkpt lat="45.20277" lon="0.61465">
        <ele>163</ele>
        <time>2019-02-08T21:03:25Z</time>
      </trkpt>
      <trkpt lat="45.20242" lon="0.61441">
        <ele>162</ele>
        <time>2019-02-08T21:04:25Z</time>
      </trkpt>
      <trkpt lat="45.2021" lon="0.61447">
        <ele>162</ele>
        <time>2019-02-08T21:05:25Z</time>
      </trkpt>
      <trkpt lat="45.20183" lon="0.61461">
        <ele>162</ele>
        <time>2019-02-08T21:06:25Z</time>
      </trkpt>
      <trkpt lat="45.20166" lon="0.61466">
        <ele>162</ele>
        <time>2019-02-08T21:07:25Z</time>
      </trkpt>
      <trkpt lat="45.20125" lon="0.61463">
        <ele>161</ele>
        <time>2019-02-08T21:08:25Z</time>
      </trkpt>
      <trkpt lat="45.20048" lon="0.6139">
        <ele>156</ele>
        <time>2019-02-08T21:09:25Z</time>
      </trkpt>
      <trkpt lat="45.20003" lon="0.6138">
        <ele>153</ele>
        <time>2019-02-08T21:10:25Z</time>
      </trkpt>
      <trkpt lat="45.19945" lon="0.61369">
        <ele>150</ele>
        <time>2019-02-08T21:11:25Z</time>
      </trkpt>
      <trkpt lat="45.19906" lon="0.61375">
        <ele>149</ele>
        <time>2019-02-08T21:12:25Z</time>
      </trkpt>
      <trkpt lat="45.19856" lon="0.61369">
        <ele>148</ele>
        <time>2019-02-08T21:13:25Z</time>
      </trkpt>
      <trkpt lat="45.19814" lon="0.61345">
        <ele>146</ele>
        <time>2019-02-08T21:14:25Z</time>
      </trkpt>
      <trkpt lat="45.19769" lon="0.61315">
        <ele>144</ele>
        <time>2019-02-08T21:15:25Z</time>
      </trkpt>
      <trkpt lat="45.19742" lon="0.61298">
        <ele>142</ele>
        <time>2019-02-08T21:16:25Z</time>
      </trkpt>
      <trkpt lat="45.19716" lon="0.61286">
        <ele>140</ele>
        <time>2019-02-08T21:17:25Z</time>
      </trkpt>
      <trkpt lat="45.19692" lon="0.61269">
        <ele>138</ele>
        <time>2019-02-08T21:18:25Z</time>
      </trkpt>
      <trkpt lat="45.19693" lon="0.61246">
        <ele>136</ele>
        <time>2019-02-08T21:19:25Z</time>
      </trkpt>
      <trkpt lat="45.19747" lon="0.61212">
        <ele>130</ele>
        <time>2019-02-08T21:20:25Z</time>
      </trkpt>
      <trkpt lat="45.19791" lon="0.612">
        <ele>127</ele>
        <time>2019-02-08T21:21:25Z</time>
      </trkpt>
      <trkpt lat="45.19827" lon="0.61187">
        <ele>125</ele>
        <time>2019-02-08T21:22:25Z</time>
      </trkpt>
      <trkpt lat="45.19834" lon="0.61155">
        <ele>121</ele>
        <time>2019-02-08T21:23:25Z</time>
      </trkpt>
      <trkpt lat="45.19792" lon="0.61161">
        <ele>121</ele>
        <time>2019-02-08T21:24:25Z</time>
      </trkpt>
      <trkpt lat="45.19774" lon="0.61164">
        <ele>122</ele>
        <time>2019-02-08T21:25:25Z</time>
      </trkpt>
      <trkpt lat="45.19757" lon="0.61151">
        <ele>120</ele>
        <time>2019-02-08T21:26:25Z</time>
      </trkpt>
      <trkpt lat="45.19729" lon="0.61131">
        <ele>120</ele>
        <time>2019-02-08T21:27:25Z</time>
      </trkpt>
      <trkpt lat="45.19688" lon="0.61118">
        <ele>120</ele>
        <time>2019-02-08T21:28:25Z</time>
      </trkpt>
      <trkpt lat="45.1964" lon="0.61094">
        <ele>119</ele>
        <time>2019-02-08T21:29:25Z</time>
      </trkpt>
      <trkpt lat="45.19608" lon="0.61057">
        <ele>115</ele>
        <time>2019-02-08T21:30:25Z</time>
      </trkpt>
      <trkpt lat="45.1957" lon="0.6102">
        <ele>111</ele>
        <time>2019-02-08T21:31:25Z</time>
      </trkpt>
      <trkpt lat="45.19548" lon="0.61002">
        <ele>109</ele>
        <time>2019-02-08T21:32:25Z</time>
      </trkpt>
      <trkpt lat="45.19508" lon="0.60982">
        <ele>109</ele>
        <time>2019-02-08T21:33:25Z</time>
      </trkpt>
      <trkpt lat="45.19506" lon="0.60964">
        <ele>108</ele>
        <time>2019-02-08T21:34:25Z</time>
      </trkpt>
      <trkpt lat="45.19508" lon="0.60923">
        <ele>106</ele>
        <time>2019-02-08T21:35:25Z</time>
      </trkpt>
      <trkpt lat="45.1948" lon="0.6091">
        <ele>106</ele>
        <time>2019-02-08T21:36:25Z</time>
      </trkpt>
      <trkpt lat="45.19423" lon="0.60868">
        <ele>109</ele>
        <time>2019-02-08T21:37:25Z</time>
      </trkpt>
      <trkpt lat="45.19329" lon="0.60792">
        <ele>110</ele>
        <time>2019-02-08T21:38:25Z</time>
      </trkpt>
      <trkpt lat="45.19259" lon="0.60731">
        <ele>108</ele>
        <time>2019-02-08T21:39:25Z</time>
      </trkpt>
      <trkpt lat="45.19202" lon="0.60666">
        <ele>105</ele>
        <time>2019-02-08T21:40:25Z</time>
      </trkpt>
      <trkpt lat="45.19156" lon="0.60619">
        <ele>100</ele>
        <time>2019-02-08T21:41:25Z</time>
      </trkpt>
      <trkpt lat="45.19106" lon="0.60555">
        <ele>96</ele>
        <time>2019-02-08T21:42:25Z</time>
      </trkpt>
      <trkpt lat="45.19062" lon="0.60475">
        <ele>95</ele>
        <time>2019-02-08T21:43:25Z</time>
      </trkpt>
      <trkpt lat="45.19001" lon="0.60353">
        <ele>93</ele>
        <time>2019-02-08T21:44:25Z</time>
      </trkpt>
      <trkpt lat="45.18991" lon="0.60338">
        <ele>93</ele>
        <time>2019-02-08T21:45:25Z</time>
      </trkpt>
      <trkpt lat="45.18946" lon="0.60319">
        <ele>93</ele>
        <time>2019-02-08T21:46:25Z</time>
      </trkpt>
      <trkpt lat="45.18925" lon="0.60303">
        <ele>93</ele>
        <time>2019-02-08T21:47:25Z</time>
      </trkpt>
      <trkpt lat="45.18897" lon="0.60267">
        <ele>95</ele>
        <time>2019-02-08T21:48:25Z</time>
      </trkpt>
      <trkpt lat="45.18874" lon="0.60215">
        <ele>97</ele>
        <time>2019-02-08T21:49:25Z</time>
      </trkpt>
      <trkpt lat="45.18786" lon="0.60073">
        <ele>95</ele>
        <time>2019-02-08T21:50:25Z</time>
      </trkpt>
      <trkpt lat="45.18791" lon="0.60017">
        <ele>97</ele>
        <time>2019-02-08T21:51:25Z</time>
      </trkpt>
      <trkpt lat="45.18795" lon="0.59965">
        <ele>100</ele>
        <time>2019-02-08T21:52:25Z</time>
      </trkpt>
      <trkpt lat="45.18808" lon="0.599">
        <ele>105</ele>
        <time>2019-02-08T21:53:25Z</time>
      </trkpt>
      <trkpt lat="45.18803" lon="0.59863">
        <ele>109</ele>
        <time>2019-02-08T21:54:25Z</time>
      </trkpt>
      <trkpt lat="45.18796" lon="0.59807">
        <ele>114</ele>
        <time>2019-02-08T21:55:25Z</time>
      </trkpt>
      <trkpt lat="45.18776" lon="0.59748">
        <ele>118</ele>
        <time>2019-02-08T21:56:25Z</time>
      </trkpt>
      <trkpt lat="45.1874" lon="0.59656">
        <ele>123</ele>
        <time>2019-02-08T21:57:25Z</time>
      </trkpt>
      <trkpt lat="45.18718" lon="0.59596">
        <ele>127</ele>
        <time>2019-02-08T21:58:25Z</time>
      </trkpt>
      <trkpt lat="45.18687" lon="0.59548">
        <ele>128</ele>
        <time>2019-02-08T21:59:25Z</time>
      </trkpt>
      <trkpt lat="45.18676" lon="0.59505">
        <ele>131</ele>
        <time>2019-02-08T22:00:25Z</time>
      </trkpt>
      <trkpt lat="45.18666" lon="0.5947">
        <ele>133</ele>
        <time>2019-02-08T22:01:25Z</time>
      </trkpt>
      <trkpt lat="45.18589" lon="0.59352">
        <ele>136</ele>
        <time>2019-02-08T22:02:25Z</time>
      </trkpt>
      <trkpt lat="45.18598" lon="0.59308">
        <ele>138</ele>
        <time>2019-02-08T22:03:25Z</time>
      </trkpt>
      <trkpt lat="45.1859" lon="0.59287">
        <ele>137</ele>
        <time>2019-02-08T22:04:25Z</time>
      </trkpt>
      <trkpt lat="45.18562" lon="0.59247">
        <ele>136</ele>
        <time>2019-02-08T22:05:25Z</time>
      </trkpt>
      <trkpt lat="45.18514" lon="0.59168">
        <ele>134</ele>
        <time>2019-02-08T22:06:25Z</time>
      </trkpt>
      <trkpt lat="45.18495" lon="0.59152">
        <ele>134</ele>
        <time>2019-02-08T22:07:25Z</time>
      </trkpt>
      <trkpt lat="45.18468" lon="0.59096">
        <ele>133</ele>
        <time>2019-02-08T22:08:25Z</time>
      </trkpt>
      <trkpt lat="45.18353" lon="0.59018">
        <ele>129</ele>
        <time>2019-02-08T22:09:25Z</time>
      </trkpt>
      <trkpt lat="45.18261" lon="0.59055">
        <ele>125</ele>
        <time>2019-02-08T22:10:25Z</time>
      </trkpt>
      <trkpt lat="45.18232" lon="0.59133">
        <ele>125</ele>
        <time>2019-02-08T22:11:25Z</time>
      </trkpt>
      <trkpt lat="45.18207" lon="0.592">
        <ele>123</ele>
        <time>2019-02-08T22:12:25Z</time>
      </trkpt>
      <trkpt lat="45.18151" lon="0.59308">
        <ele>118</ele>
        <time>2019-02-08T22:13:25Z</time>
      </trkpt>
      <trkpt lat="45.18126" lon="0.59396">
        <ele>112</ele>
        <time>2019-02-08T22:14:25Z</time>
      </trkpt>
      <trkpt lat="45.18069" lon="0.59472">
        <ele>101</ele>
        <time>2019-02-08T22:15:25Z</time>
      </trkpt>
      <trkpt lat="45.18017" lon="0.5955">
        <ele>94</ele>
        <time>2019-02-08T22:16:25Z</time>
      </trkpt>
      <trkpt lat="45.17981" lon="0.5958">
        <ele>92</ele>
        <time>2019-02-08T22:17:25Z</time>
      </trkpt>
      <trkpt lat="45.17943" lon="0.5962">
        <ele>92</ele>
        <time>2019-02-08T22:18:25Z</time>
      </trkpt>
      <trkpt lat="45.17911" lon="0.597">
        <ele>89</ele>
        <time>2019-02-08T22:19:25Z</time>
      </trkpt>
      <trkpt lat="45.17887" lon="0.59761">
        <ele>87</ele>
        <time>2019-02-08T22:20:25Z</time>
      </trkpt>
      <trkpt lat="45.17805" lon="0.5975">
        <ele>86</ele>
        <time>2019-02-08T22:21:25Z</time>
      </trkpt>
      <trkpt lat="45.17719" lon="0.5971">
        <ele>81</ele>
        <time>2019-02-08T22:22:25Z</time>
      </trkpt>
      <trkpt lat="45.17662" lon="0.59671">
        <ele>76</ele>
        <time>2019-02-08T22:23:25Z</time>
      </trkpt>
      <trkpt lat="45.17607" lon="0.59631">
        <ele>75</ele>
        <time>2019-02-08T22:24:25Z</time>
      </trkpt>
      <trkpt lat="45.17583" lon="0.59624">
        <ele>75</ele>
        <time>2019-02-08T22:25:25Z</time>
      </trkpt>
      <trkpt lat="45.17497" lon="0.59476">
        <ele>78</ele>
        <time>2019-02-08T22:26:25Z</time>
      </trkpt>
      <trkpt lat="45.17438" lon="0.5941">
        <ele>78</ele>
        <time>2019-02-08T22:27:25Z</time>
      </trkpt>
      <trkpt lat="45.17337" lon="0.59322">
        <ele>77</ele>
        <time>2019-02-08T22:28:25Z</time>
      </trkpt>
      <trkpt lat="45.17275" lon="0.59246">
        <ele>77</ele>
        <time>2019-02-08T22:29:25Z</time>
      </trkpt>
      <trkpt lat="45.17217" lon="0.59119">
        <ele>80</ele>
        <time>2019-02-08T22:30:25Z</time>
      </trkpt>
      <trkpt lat="45.17205" lon="0.59049">
        <ele>82</ele>
        <time>2019-02-08T22:31:25Z</time>
      </trkpt>
      <trkpt lat="45.17145" lon="0.59031">
        <ele>80</ele>
        <time>2019-02-08T22:32:25Z</time>
      </trkpt>
      <trkpt lat="45.17063" lon="0.58982">
        <ele>77</ele>
        <time>2019-02-08T22:33:25Z</time>
      </trkpt>
      <trkpt lat="45.16946" lon="0.58788">
        <ele>74</ele>
        <time>2019-02-08T22:34:25Z</time>
      </trkpt>
      <trkpt lat="45.16851" lon="0.58693">
        <ele>75</ele>
        <time>2019-02-08T22:35:25Z</time>
      </trkpt>
      <trkpt lat="45.16785" lon="0.58664">
        <ele>74</ele>
        <time>2019-02-08T22:36:25Z</time>
      </trkpt>
      <trkpt lat="45.16663" lon="0.58533">
        <ele>75</ele>
        <time>2019-02-08T22:37:25Z</time>
      </trkpt>
      <trkpt lat="45.16592" lon="0.58476">
        <ele>74</ele>
        <time>2019-02-08T22:38:25Z</time>
      </trkpt>
      <trkpt lat="45.16532" lon="0.58427">
        <ele>75</ele>
        <time>2019-02-08T22:39:25Z</time>
      </trkpt>
      <trkpt lat="45.16515" lon="0.58392">
        <ele>75</ele>
        <time>2019-02-08T22:40:25Z</time>
      </trkpt>
      <trkpt lat="45.16464" lon="0.58194">
        <ele>72</ele>
        <time>2019-02-08T22:41:25Z</time>
      </trkpt>
      <trkpt lat="45.16286" lon="0.57396">
        <ele>71</ele>
        <time>2019-02-08T22:42:25Z</time>
      </trkpt>
      <trkpt lat="45.16262" lon="0.57304">
        <ele>72</ele>
        <time>2019-02-08T22:43:25Z</time>
      </trkpt>
      <trkpt lat="45.1627" lon="0.57199">
        <ele>72</ele>
        <time>2019-02-08T22:44:25Z</time>
      </trkpt>
      <trkpt lat="45.16256" lon="0.57202">
        <ele>72</ele>
        <time>2019-02-08T22:45:25Z</time>
      </trkpt>
      <trkpt lat="45.1624" lon="0.57194">
        <ele>71</ele>
        <time>2019-02-08T22:46:25Z</time>
      </trkpt>
      <trkpt lat="45.16258" lon="0.57133">
        <ele>71</ele>
        <time>2019-02-08T22:47:25Z</time>
      </trkpt>
      <trkpt lat="45.16267" lon="0.57101">
        <ele>71</ele>
        <time>2019-02-08T22:48:25Z</time>
      </trkpt>
      <trkpt lat="45.16262" lon="0.56985">
        <ele>70</ele>
        <time>2019-02-08T22:49:25Z</time>
      </trkpt>
      <trkpt lat="45.16281" lon="0.56947">
        <ele>71</ele>
        <time>2019-02-08T22:50:25Z</time>
      </trkpt>
      <trkpt lat="45.16271" lon="0.56913">
        <ele>70</ele>
        <time>2019-02-08T22:51:25Z</time>
      </trkpt>
      <trkpt lat="45.16261" lon="0.56882">
        <ele>70</ele>
        <time>2019-02-08T22:52:25Z</time>
      </trkpt>
      <trkpt lat="45.16242" lon="0.5685">
        <ele>70</ele>
        <time>2019-02-08T22:53:25Z</time>
      </trkpt>
      <trkpt lat="45.16214" lon="0.56821">
        <ele>70</ele>
        <time>2019-02-08T22:54:25Z</time>
      </trkpt>
      <trkpt lat="45.16178" lon="0.56794">
        <ele>70</ele>
        <time>2019-02-08T22:55:25Z</time>
      </trkpt>
      <trkpt lat="45.16165" lon="0.56746">
        <ele>70</ele>
        <time>2019-02-08T22:56:25Z</time>
      </trkpt>
      <trkpt lat="45.16136" lon="0.56702">
        <ele>69</ele>
        <time>2019-02-08T22:57:25Z</time>
      </trkpt>
      <trkpt lat="45.1608" lon="0.56769">
        <ele>69</ele>
        <time>2019-02-08T22:58:25Z</time>
      </trkpt>
      <trkpt lat="45.16013" lon="0.56837">
        <ele>69</ele>
        <time>2019-02-08T22:59:25Z</time>
      </trkpt>
      <trkpt lat="45.15949" lon="0.5688">
        <ele>70</ele>
        <time>2019-02-08T23:00:25Z</time>
      </trkpt>
      <trkpt lat="45.15882" lon="0.56926">
        <ele>70</ele>
        <time>2019-02-08T23:01:25Z</time>
      </trkpt>
      <trkpt lat="45.15809" lon="0.56973">
        <ele>70</ele>
        <time>2019-02-08T23:02:25Z</time>
      </trkpt>
      <trkpt lat="45.15815" lon="0.56874">
        <ele>71</ele>
        <time>2019-02-08T23:03:25Z</time>
      </trkpt>
      <trkpt lat="45.15805" lon="0.56781">
        <ele>71</ele>
        <time>2019-02-08T23:04:25Z</time>
      </trkpt>
      <trkpt lat="45.15788" lon="0.56714">
        <ele>71</ele>
        <time>2019-02-08T23:05:25Z</time>
      </trkpt>
      <trkpt lat="45.15776" lon="0.56674">
        <ele>71</ele>
        <time>2019-02-08T23:06:25Z</time>
      </trkpt>
      <trkpt lat="45.15732" lon="0.566">
        <ele>71</ele>
        <time>2019-02-08T23:07:25Z</time>
      </trkpt>
      <trkpt lat="45.15706" lon="0.56544">
        <ele>71</ele>
        <time>2019-02-08T23:08:25Z</time>
      </trkpt>
      <trkpt lat="45.1567" lon="0.56425">
        <ele>71</ele>
        <time>2019-02-08T23:09:25Z</time>
      </trkpt>
      <trkpt lat="45.15631" lon="0.56318">
        <ele>71</ele>
        <time>2019-02-08T23:10:25Z</time>
      </trkpt>
      <trkpt lat="45.15575" lon="0.56189">
        <ele>73</ele>
        <time>2019-02-08T23:11:25Z</time>
      </trkpt>
      <trkpt lat="45.15535" lon="0.55996">
        <ele>72</ele>
        <time>2019-02-08T23:12:25Z</time>
      </trkpt>
      <trkpt lat="45.15513" lon="0.55919">
        <ele>72</ele>
        <time>2019-02-08T23:13:25Z</time>
      </trkpt>
      <trkpt lat="45.15492" lon="0.5585">
        <ele>72</ele>
        <time>2019-02-08T23:14:25Z</time>
      </trkpt>
      <trkpt lat="45.15488" lon="0.55818">
        <ele>72</ele>
        <time>2019-02-08T23:15:25Z</time>
      </trkpt>
      <trkpt lat="45.15425" lon="0.55721">
        <ele>74</ele>
        <time>2019-02-08T23:16:25Z</time>
      </trkpt>
      <trkpt lat="45.15367" lon="0.55631">
        <ele>72</ele>
        <time>2019-02-08T23:17:25Z</time>
      </trkpt>
      <trkpt lat="45.15365" lon="0.5558">
        <ele>71</ele>
        <time>2019-02-08T23:18:25Z</time>
      </trkpt>
      <trkpt lat="45.15382" lon="0.55533">
        <ele>72</ele>
        <time>2019-02-08T23:19:25Z</time>
      </trkpt>
      <trkpt lat="45.15341" lon="0.55407">
        <ele>72</ele>
        <time>2019-02-08T23:20:25Z</time>
      </trkpt>
      <trkpt lat="45.15308" lon="0.55395">
        <ele>72</ele>
        <time>2019-02-08T23:21:25Z</time>
      </trkpt>
      <trkpt lat="45.15285" lon="0.55311">
        <ele>72</ele>
        <time>2019-02-08T23:22:25Z</time>
      </trkpt>
      <trkpt lat="45.15264" lon="0.55256">
        <ele>72</ele>
        <time>2019-02-08T23:23:25Z</time>
      </trkpt>
      <trkpt lat="45.15229" lon="0.55134">
        <ele>71</ele>
        <time>2019-02-08T23:24:25Z</time>
      </trkpt>
      <trkpt lat="45.15189" lon="0.55036">
        <ele>71</ele>
        <time>2019-02-08T23:25:25Z</time>
      </trkpt>
      <trkpt lat="45.15158" lon="0.54981">
        <ele>71</ele>
        <time>2019-02-08T23:26:25Z</time>
      </trkpt>
      <trkpt lat="45.15113" lon="0.54944">
        <ele>71</ele>
        <time>2019-02-08T23:27:25Z</time>
      </trkpt>
      <trkpt lat="45.15063" lon="0.54904">
        <ele>73</ele>
        <time>2019-02-08T23:28:25Z</time>
      </trkpt>
      <trkpt lat="45.15005" lon="0.54824">
        <ele>73</ele>
        <time>2019-02-08T23:29:25Z</time>
      </trkpt>
      <trkpt lat="45.14961" lon="0.54763">
        <ele>74</ele>
        <time>2019-02-08T23:30:25Z</time>
      </trkpt>
      <trkpt lat="45.14963" lon="0.54723">
        <ele>73</ele>
        <time>2019-02-08T23:31:25Z</time>
      </trkpt>
      <trkpt lat="45.14951" lon="0.54712">
        <ele>73</ele>
        <time>2019-02-08T23:32:25Z</time>
      </trkpt>
      <trkpt lat="45.14945" lon="0.5469">
        <ele>73</ele>
        <time>2019-02-08T23:33:25Z</time>
      </trkpt>
      <trkpt lat="45.14947" lon="0.54668">
        <ele>73</ele>
        <time>2019-02-08T23:34:25Z</time>
      </trkpt>
      <trkpt lat="45.14982" lon="0.5465">
        <ele>72</ele>
        <time>2019-02-08T23:35:25Z</time>
      </trkpt>
      <trkpt lat="45.14983" lon="0.54571">
        <ele>71</ele>
        <time>2019-02-08T23:36:25Z</time>
      </trkpt>
      <trkpt lat="45.14999" lon="0.54552">
        <ele>71</ele>
        <time>2019-02-08T23:37:25Z</time>
      </trkpt>
      <trkpt lat="45.15032" lon="0.54537">
        <ele>70</ele>
        <time>2019-02-08T23:38:25Z</time>
      </trkpt>
      <trkpt lat="45.15069" lon="0.54537">
        <ele>70</ele>
        <time>2019-02-08T23:39:25Z</time>
      </trkpt>
      <trkpt lat="45.15077" lon="0.54478">
        <ele>69</ele>
        <time>2019-02-08T23:40:25Z</time>
      </trkpt>
      <trkpt lat="45.15085" lon="0.5441">
        <ele>69</ele>
        <time>2019-02-08T23:41:25Z</time>
      </trkpt>
      <trkpt lat="45.15111" lon="0.54324">
        <ele>69</ele>
        <time>2019-02-08T23:42:25Z</time>
      </trkpt>
      <trkpt lat="45.15141" lon="0.54255">
        <ele>68</ele>
        <time>2019-02-08T23:43:25Z</time>
      </trkpt>
      <trkpt lat="45.15025" lon="0.54199">
        <ele>70</ele>
        <time>2019-02-08T23:44:25Z</time>
      </trkpt>
      <trkpt lat="45.14968" lon="0.54162">
        <ele>70</ele>
        <time>2019-02-08T23:45:25Z</time>
      </trkpt>
      <trkpt lat="45.14867" lon="0.54099">
        <ele>71</ele>
        <time>2019-02-08T23:46:25Z</time>
      </trkpt>
      <trkpt lat="45.14852" lon="0.53844">
        <ele>66</ele>
        <time>2019-02-08T23:47:25Z</time>
      </trkpt>
      <trkpt lat="45.14834" lon="0.53637">
        <ele>66</ele>
        <time>2019-02-08T23:48:25Z</time>
      </trkpt>
      <trkpt lat="45.14826" lon="0.5351">
        <ele>67</ele>
        <time>2019-02-08T23:49:25Z</time>
      </trkpt>
      <trkpt lat="45.14801" lon="0.53428">
        <ele>67</ele>
        <time>2019-02-08T23:50:25Z</time>
      </trkpt>
      <trkpt lat="45.14753" lon="0.53369">
        <ele>65</ele>
        <time>2019-02-08T23:51:25Z</time>
      </trkpt>
      <trkpt lat="45.14657" lon="0.53321">
        <ele>66</ele>
        <time>2019-02-08T23:52:25Z</time>
      </trkpt>
      <trkpt lat="45.14635" lon="0.53311">
        <ele>66</ele>
        <time>2019-02-08T23:53:25Z</time>
      </trkpt>
      <trkpt lat="45.14622" lon="0.53196">
        <ele>67</ele>
        <time>2019-02-08T23:54:25Z</time>
      </trkpt>
      <trkpt lat="45.146" lon="0.53034">
        <ele>73</ele>
        <time>2019-02-08T23:55:25Z</time>
      </trkpt>
      <trkpt lat="45.14589" lon="0.52975">
        <ele>77</ele>
        <time>2019-02-08T23:56:25Z</time>
      </trkpt>
    </trkseg>
  </trk>
</gpx>